Terminal Aerodrome Forecast
Issued by NWS

Home | Current Version | Previous Version | Text Only | Print | Product List | Glossary On
Versions: 1 2 3 4 5 6 7 8 9 10 11 12 13 14 15
624
FTUS46 KLOX 191725
TAFVNY
TAF
KVNY 191725Z 1918/2018 VRB03KT P6SM SKC
     FM192000 15008KT P6SM SKC
     FM200300 VRB03KT P6SM SKC
     FM200700 VRB03KT 6SM BR OVC010
     FM201700 15006KT P6SM BKN015=

USA.gov is the U.S. government's official web portal to all federal, state and local government web resources and services.